Time;durP1;ratioP1;P1;durP2;ratioP2;P2;SDS_P1;SDS_P2;PMS_P1;PMS_P2;Temp;Humidity;BMP_temperature;BMP_pressure;BME280_temperature;BME280_humidity;BME280_pressure;Samples;Min_cycle;Max_cycle;Signal;HPM_P1;HPM_P2
2023/02/03 00:00:27;;;;;;;15.40;6.03;;;;;;;-0.91;100.00;101327.52;4810102;58;1140932;-67
2023/02/03 00:05:36;;;;;;;12.68;4.78;;;;;;;-0.88;100.00;101327.47;4922203;56;1141143;-70
2023/02/03 00:10:42;;;;;;;8.25;4.22;;;;;;;-0.93;100.00;101322.38;4911658;57;1140976;-70
2023/02/03 00:15:48;;;;;;;12.07;4.73;;;;;;;-0.94;100.00;101322.41;5023841;56;1138902;-67
2023/02/03 00:20:54;;;;;;;13.35;4.70;;;;;;;-0.95;100.00;101321.55;4984756;57;1141118;-67
2023/02/03 00:26:09;;;;;;;13.20;4.83;;;;;;;-0.95;100.00;101323.28;5043039;57;1141031;-69
2023/02/03 00:31:21;;;;;;;9.13;3.23;;;;;;;-0.94;100.00;101327.59;5023044;57;1140963;-67
2023/02/03 00:36:27;;;;;;;14.50;4.47;;;;;;;-0.94;100.00;101325.00;5023064;57;1138920;-68
2023/02/03 00:41:33;;;;;;;14.10;4.92;;;;;;;-0.92;100.00;101320.64;5022769;57;1141112;-68
2023/02/03 00:46:39;;;;;;;13.27;5.13;;;;;;;-0.93;100.00;101306.80;5043178;57;1141076;-68
2023/02/03 00:51:45;;;;;;;13.78;4.75;;;;;;;-0.87;100.00;101300.62;5022786;57;1140965;-68
2023/02/03 00:56:52;;;;;;;14.93;4.40;;;;;;;-0.83;100.00;101284.11;5022902;57;1141020;-67
2023/02/03 01:01:57;;;;;;;21.17;6.10;;;;;;;-0.83;100.00;101278.47;5049195;57;1140913;-70
2023/02/03 01:07:03;;;;;;;24.10;7.53;;;;;;;-0.81;100.00;101261.13;4950082;57;1140998;-69
2023/02/03 01:12:09;;;;;;;17.03;5.60;;;;;;;-0.78;100.00;101244.19;4950040;57;1141199;-69
2023/02/03 01:17:15;;;;;;;11.95;5.45;;;;;;;-0.75;100.00;101231.56;4969401;57;1141025;-67
2023/02/03 01:22:21;;;;;;;12.40;5.77;;;;;;;-0.72;100.00;101217.22;4949549;58;1140888;-70
2023/02/03 01:27:27;;;;;;;17.20;5.80;;;;;;;-0.64;100.00;101202.80;4950057;57;1141111;-69
2023/02/03 01:32:34;;;;;;;17.10;5.97;;;;;;;-0.55;100.00;101181.81;4969274;58;1141014;-67
2023/02/03 01:37:42;;;;;;;14.07;5.70;;;;;;;-0.52;100.00;101167.45;4950254;58;1143806;-67
2023/02/03 01:42:48;;;;;;;20.30;6.63;;;;;;;-0.59;100.00;101163.27;4950181;57;1141017;-68
2023/02/03 01:47:57;;;;;;;17.07;6.60;;;;;;;-0.69;100.00;101166.52;4974262;57;1140987;-67
2023/02/03 01:53:07;;;;;;;14.37;6.60;;;;;;;-0.77;100.00;101180.13;5031932;57;1141215;-69
2023/02/03 01:58:29;;;;;;;14.60;5.50;;;;;;;-0.82;100.00;101184.55;5012697;57;1141043;-67
2023/02/03 02:03:43;;;;;;;13.93;7.03;;;;;;;-0.90;100.00;101172.14;4950233;58;1141074;-67
2023/02/03 02:08:52;;;;;;;15.40;6.67;;;;;;;-0.93;100.00;101173.53;4969751;57;1141079;-67
2023/02/03 02:14:01;;;;;;;12.53;5.53;;;;;;;-0.95;100.00;101164.91;4949733;57;1141015;-69
2023/02/03 02:19:24;;;;;;;11.10;4.97;;;;;;;-0.97;100.00;101148.50;4949874;58;1140893;-69
2023/02/03 02:25:07;;;;;;;11.70;5.03;;;;;;;-0.97;100.00;101124.70;4949970;58;1141145;-70
2023/02/03 02:30:35;;;;;;;14.33;5.87;;;;;;;-0.94;100.00;101111.66;4968599;58;1140998;-68
2023/02/03 02:35:51;;;;;;;18.43;7.27;;;;;;;-0.90;100.00;101100.30;4875403;57;1141114;-68
2023/02/03 02:41:17;;;;;;;19.13;8.27;;;;;;;-0.90;100.00;101077.37;4949202;57;1141287;-68
2023/02/03 02:46:50;;;;;;;14.73;5.53;;;;;;;-0.85;100.00;101063.86;4942140;57;1141077;-67
2023/02/03 02:52:00;;;;;;;13.48;6.47;;;;;;;-0.79;100.00;101064.59;5039441;57;1140987;-69
2023/02/03 02:57:06;;;;;;;14.10;5.03;;;;;;;-0.72;100.00;101065.28;4762671;59;1141033;-69
2023/02/03 03:02:12;;;;;;;11.90;6.13;;;;;;;-0.72;100.00;101070.48;4897767;57;1140856;-68
2023/02/03 03:07:22;;;;;;;11.67;5.33;;;;;;;-0.73;100.00;101075.27;4941513;57;1141118;-67
2023/02/03 03:12:33;;;;;;;10.87;5.17;;;;;;;-0.73;100.00;101054.48;4861420;57;1141507;-69
2023/02/03 03:17:47;;;;;;;15.08;6.65;;;;;;;-0.68;100.00;101038.36;4843651;57;1141004;-67
2023/02/03 03:23:00;;;;;;;13.98;5.47;;;;;;;-0.66;100.00;101016.25;4853100;58;1140990;-68
2023/02/03 03:28:10;;;;;;;12.97;4.47;;;;;;;-0.65;100.00;101008.42;4829344;58;1140922;-67
2023/02/03 03:33:16;;;;;;;10.50;5.17;;;;;;;-0.68;100.00;101003.74;4884288;57;1140970;-70
2023/02/03 03:38:32;;;;;;;12.17;5.87;;;;;;;-0.71;100.00;100995.12;4883785;57;1140958;-69
2023/02/03 03:43:41;;;;;;;18.17;6.47;;;;;;;-0.75;100.00;100983.09;4903020;58;1140990;-68
2023/02/03 03:48:58;;;;;;;11.85;5.20;;;;;;;-0.79;100.00;100976.73;4883541;58;1141001;-67
2023/02/03 03:54:08;;;;;;;21.37;5.90;;;;;;;-0.82;100.00;100967.72;4923034;56;1141135;-67
2023/02/03 03:59:17;;;;;;;17.43;6.50;;;;;;;-0.84;100.00;100955.21;4984332;56;1141107;-68
2023/02/03 04:04:26;;;;;;;15.63;6.10;;;;;;;-0.82;100.00;100948.24;4968398;57;1141004;-69
2023/02/03 04:09:35;;;;;;;18.02;6.47;;;;;;;-0.78;100.00;100944.25;4997357;57;1140851;-69
2023/02/03 04:14:41;;;;;;;13.28;5.68;;;;;;;-0.75;100.00;100930.30;4987217;57;1140876;-68
2023/02/03 04:19:48;;;;;;;16.73;6.83;;;;;;;-0.71;100.00;100926.75;4921360;57;1141038;-69
2023/02/03 04:24:57;;;;;;;16.48;6.87;;;;;;;-0.72;100.00;100912.91;4916161;56;1141081;-68
2023/02/03 04:30:02;;;;;;;24.33;6.83;;;;;;;-0.68;100.00;100907.64;4961967;56;1140941;-70
2023/02/03 04:35:09;;;;;;;14.07;5.73;;;;;;;-0.65;100.00;100901.08;4942179;56;1140913;-68
2023/02/03 04:40:15;;;;;;;17.70;6.83;;;;;;;-0.60;100.00;100896.59;4942815;56;1141187;-71
2023/02/03 04:45:20;;;;;;;22.17;7.53;;;;;;;-0.53;100.00;100877.37;4942815;56;1140945;-69
2023/02/03 04:50:26;;;;;;;13.60;6.07;;;;;;;-0.48;100.00;100861.23;4949818;57;1140917;-70
2023/02/03 04:55:32;;;;;;;14.93;6.10;;;;;;;-0.41;100.00;100853.66;4931075;57;1140919;-69
2023/02/03 05:00:37;;;;;;;19.17;6.87;;;;;;;-0.33;100.00;100845.67;4929546;57;1141140;-69
2023/02/03 05:05:43;;;;;;;18.10;6.50;;;;;;;-0.25;100.00;100817.27;4948850;57;1141028;-69
2023/02/03 05:10:49;;;;;;;17.27;6.70;;;;;;;-0.25;100.00;100817.27;4968840;57;1140880;-70
2023/02/03 05:15:55;;;;;;;17.92;6.33;;;;;;;-0.21;100.00;100808.48;4938708;57;1140867;-70
2023/02/03 05:21:01;;;;;;;13.60;6.40;;;;;;;-0.23;100.00;100778.23;5051547;57;1141047;-69
2023/02/03 05:26:07;;;;;;;17.67;5.93;;;;;;;-0.25;100.00;100763.13;5031753;56;1141095;-67
2023/02/03 05:31:13;;;;;;;16.90;6.73;;;;;;;-0.26;100.00;100758.38;5031426;56;1141283;-68
2023/02/03 05:36:19;;;;;;;52.43;26.03;;;;;;;-0.22;100.00;100756.09;5051600;56;1140996;-69
2023/02/03 05:46:49;;;;;;;14.98;4.42;;;;;;;-0.18;100.00;100742.13;5031855;56;1140910;-70
2023/02/03 05:51:56;;;;;;;15.57;5.37;;;;;;;-0.20;100.00;100728.32;5064924;56;1141150;-70
2023/02/03 05:57:02;;;;;;;14.47;5.50;;;;;;;-0.26;100.00;100710.30;5066710;56;1141103;-70
2023/02/03 06:02:08;;;;;;;17.23;5.87;;;;;;;-0.29;100.00;100718.18;5006902;56;1141020;-70
2023/02/03 06:07:14;;;;;;;15.93;6.27;;;;;;;-0.31;100.00;100712.66;5077926;55;1140892;-68
2023/02/03 06:12:20;;;;;;;19.07;6.53;;;;;;;-0.31;100.00;100704.86;5113513;56;1141061;-68
2023/02/03 06:17:26;;;;;;;17.57;6.63;;;;;;;-0.29;100.00;100697.84;5029010;56;1141168;-67
2023/02/03 06:22:32;;;;;;;23.03;9.30;;;;;;;-0.27;100.00;100692.15;5048354;56;1141123;-70
2023/02/03 06:27:38;;;;;;;15.50;7.87;;;;;;;-0.27;100.00;100673.51;5076233;55;1140793;-70
2023/02/03 06:32:44;;;;;;;20.13;7.53;;;;;;;-0.27;100.00;100649.27;5082102;56;1141016;-69
2023/02/03 06:37:52;;;;;;;19.93;6.93;;;;;;;-0.23;100.00;100641.34;5044647;56;1141011;-69
2023/02/03 06:42:58;;;;;;;21.25;9.78;;;;;;;-0.23;100.00;100621.00;5104614;56;1141045;-69
2023/02/03 06:48:04;;;;;;;20.27;10.37;;;;;;;-0.18;100.00;100604.81;5037040;56;1140951;-69
2023/02/03 06:53:09;;;;;;;24.00;10.13;;;;;;;-0.15;100.00;100598.19;5014204;56;1142964;-70
2023/02/03 06:58:15;;;;;;;23.67;11.67;;;;;;;-0.14;100.00;100572.16;5031015;57;1143006;-67
2023/02/03 07:03:21;;;;;;;16.13;8.13;;;;;;;-0.09;100.00;100560.31;5001286;57;1143010;-66
2023/02/03 07:08:28;;;;;;;15.85;9.13;;;;;;;-0.09;100.00;100532.57;5028134;56;1141019;-69
2023/02/03 07:13:34;;;;;;;29.50;13.07;;;;;;;-0.07;100.00;100522.13;5100553;56;1141085;-70
2023/02/03 07:18:40;;;;;;;21.17;10.57;;;;;;;-0.06;100.00;100508.23;5100951;56;1143062;-69
2023/02/03 07:23:50;;;;;;;61.17;29.20;;;;;;;-0.01;100.00;100499.38;5100605;56;1143140;-69
2023/02/03 07:28:58;;;;;;;53.75;22.82;;;;;;;0.00;100.00;100478.13;5121456;55;1143038;-69
2023/02/03 07:34:03;;;;;;;22.43;10.97;;;;;;;0.04;100.00;100461.95;5102278;56;1140925;-66
2023/02/03 07:39:09;;;;;;;34.57;14.93;;;;;;;0.08;100.00;100444.89;5101742;56;1141081;-69
2023/02/03 07:44:15;;;;;;;40.60;16.20;;;;;;;0.16;100.00;100429.85;5121556;56;1141006;-65
2023/02/03 07:49:20;;;;;;;25.57;13.20;;;;;;;0.17;100.00;100419.00;5065075;56;1140935;-68
2023/02/03 07:54:28;;;;;;;56.10;25.93;;;;;;;0.20;100.00;100398.09;5062963;56;1140942;-68
2023/02/03 07:59:34;;;;;;;39.23;21.90;;;;;;;0.20;100.00;100374.23;5035043;55;1141157;-66
2023/02/03 08:04:40;;;;;;;15.50;10.67;;;;;;;0.21;100.00;100355.58;5056152;56;1141028;-66
2023/02/03 08:09:46;;;;;;;12.77;8.63;;;;;;;0.26;100.00;100345.41;5036631;56;1140895;-69
2023/02/03 08:14:51;;;;;;;15.73;9.27;;;;;;;0.31;100.00;100330.45;5036925;56;1138918;-67
2023/02/03 08:19:57;;;;;;;10.90;6.40;;;;;;;0.34;100.00;100313.88;5053056;55;1138969;-68
2023/02/03 08:25:03;;;;;;;10.98;6.92;;;;;;;0.37;100.00;100304.66;5013753;56;1139032;-69
2023/02/03 08:30:12;;;;;;;9.93;7.90;;;;;;;0.41;100.00;100296.29;5028004;55;1138834;-68
2023/02/03 08:35:18;;;;;;;28.12;16.95;;;;;;;0.44;100.00;100268.86;5012166;56;1136850;-69
2023/02/03 08:40:24;;;;;;;16.70;9.63;;;;;;;0.42;100.00;100250.71;4952278;57;1141039;-71
2023/02/03 08:45:30;;;;;;;23.50;13.27;;;;;;;0.43;100.00;100237.25;5010703;57;1138852;-70
2023/02/03 08:50:35;;;;;;;12.07;7.43;;;;;;;0.45;100.00;100209.42;4968867;57;1140974;-67
2023/02/03 08:55:43;;;;;;;18.57;9.40;;;;;;;0.47;100.00;100182.86;4928335;58;1139001;-69
2023/02/03 09:00:51;;;;;;;17.60;7.57;;;;;;;0.45;100.00;100176.90;4909329;58;1138884;-68
2023/02/03 09:05:57;;;;;;;12.95;8.18;;;;;;;0.46;100.00;100156.48;5024462;56;1139005;-71
2023/02/03 09:11:03;;;;;;;11.08;6.97;;;;;;;0.44;100.00;100138.78;4863201;58;1139118;-68
2023/02/03 09:16:10;;;;;;;19.77;10.27;;;;;;;0.47;100.00;100122.56;4945431;57;1139013;-71
2023/02/03 09:21:16;;;;;;;12.50;7.90;;;;;;;0.48;100.00;100109.11;4894491;58;1140971;-71
2023/02/03 09:26:22;;;;;;;14.37;9.17;;;;;;;0.50;100.00;100087.77;4958795;58;1138922;-66
2023/02/03 09:31:28;;;;;;;13.97;8.10;;;;;;;0.48;100.00;100064.88;4959002;58;1139015;-69
2023/02/03 09:36:34;;;;;;;80.70;34.70;;;;;;;0.50;100.00;100053.95;5047956;56;1138924;-68
2023/02/03 09:42:27;;;;;;;14.40;9.33;;;;;;;0.51;100.00;100024.42;4946326;57;1141370;-68
2023/02/03 09:47:40;;;;;;;11.77;8.53;;;;;;;0.56;100.00;99986.89;4975605;56;1138816;-67
2023/02/03 09:52:46;;;;;;;18.63;7.33;;;;;;;0.57;100.00;99970.83;4953710;58;1136751;-66
2023/02/03 09:58:08;;;;;;;17.45;10.10;;;;;;;0.53;100.00;99954.50;5057026;57;1136862;-67
2023/02/03 10:03:55;;;;;;;10.83;6.37;;;;;;;0.61;100.00;99926.84;5040555;57;1138745;-69
2023/02/03 10:09:21;;;;;;;17.02;9.53;;;;;;;0.66;100.00;99910.55;4967443;57;1136743;-71
2023/02/03 10:15:08;;;;;;;22.30;8.80;;;;;;;0.73;100.00;99882.48;5022247;57;1136724;-70
2023/02/03 10:20:24;;;;;;;19.33;9.17;;;;;;;0.73;100.00;99887.23;5037261;57;1136725;-68
2023/02/03 10:25:43;;;;;;;25.48;13.58;;;;;;;0.76;100.00;99871.94;5040937;57;1136863;-67
2023/02/03 10:30:59;;;;;;;8.43;6.17;;;;;;;0.78;100.00;99854.00;5052121;57;1138901;-69
2023/02/03 10:36:15;;;;;;;14.70;8.75;;;;;;;0.78;100.00;99818.87;5039357;57;1134797;-68
2023/02/03 10:41:22;;;;;;;109.07;25.77;;;;;;;0.83;100.00;99801.27;5037166;57;1136887;-70
2023/02/03 10:46:32;;;;;;;77.65;28.67;;;;;;;0.87;100.00;99775.48;5037496;57;1141117;-67
2023/02/03 10:51:51;;;;;;;86.47;44.73;;;;;;;0.94;100.00;99749.97;5024792;57;1139324;-68
2023/02/03 10:57:00;;;;;;;42.10;16.57;;;;;;;1.03;100.00;99733.44;5084018;56;1138838;-68
2023/02/03 11:02:22;;;;;;;21.80;11.60;;;;;;;1.11;100.00;99708.30;5037122;56;1138795;-65
2023/02/03 11:07:30;;;;;;;81.75;27.50;;;;;;;1.13;100.00;99690.83;5031112;57;1139189;-67
2023/02/03 11:12:36;;;;;;;12.87;7.50;;;;;;;1.13;100.00;99671.77;4973398;58;1138967;-66
2023/02/03 11:17:44;;;;;;;10.37;7.10;;;;;;;1.13;100.00;99661.34;4954036;58;1136881;-68
2023/02/03 11:22:50;;;;;;;23.33;14.83;;;;;;;1.14;100.00;99635.23;4934944;58;1136802;-69
2023/02/03 11:28:00;;;;;;;17.05;8.83;;;;;;;1.17;100.00;99622.52;4973700;58;1138918;-70
2023/02/03 11:33:20;;;;;;;11.10;6.63;;;;;;;1.16;100.00;99599.53;4954069;58;1136810;-69
2023/02/03 11:38:36;;;;;;;10.87;6.70;;;;;;;1.21;100.00;99579.30;4954306;58;1136688;-66
2023/02/03 11:43:42;;;;;;;19.97;8.60;;;;;;;1.23;100.00;99563.56;4954153;58;1136912;-69
2023/02/03 11:49:07;;;;;;;8.60;5.53;;;;;;;1.27;100.00;99546.39;4955042;58;1136960;-67
2023/02/03 11:54:17;;;;;;;7.95;3.92;;;;;;;1.38;100.00;99538.81;4961282;57;1134697;-68
2023/02/03 12:00:03;;;;;;;9.00;4.93;;;;;;;1.55;100.00;99522.23;4957555;57;1134957;-67
2023/02/03 12:05:30;;;;;;;8.03;5.43;;;;;;;1.70;100.00;99506.19;5036138;57;1134986;-70
2023/02/03 12:11:16;;;;;;;10.98;6.83;;;;;;;1.80;100.00;99495.63;5029413;57;1134961;-68
2023/02/03 12:16:51;;;;;;;10.60;7.37;;;;;;;1.92;100.00;99499.29;4943376;58;1137088;-68
2023/02/03 12:22:16;;;;;;;8.83;5.60;;;;;;;1.96;100.00;99497.72;5015882;57;1136975;-69
2023/02/03 12:27:41;;;;;;;8.33;5.90;;;;;;;2.02;100.00;99489.52;5040975;57;1134675;-68
2023/02/03 12:33:04;;;;;;;7.87;5.07;;;;;;;2.08;100.00;99480.51;4948909;58;1134710;-66
2023/02/03 12:38:17;;;;;;;7.57;5.40;;;;;;;2.25;100.00;99486.87;4966101;58;1134865;-67
2023/02/03 12:43:41;;;;;;;10.13;5.80;;;;;;;2.46;100.00;99488.63;4955125;58;1134886;-68
2023/02/03 12:49:17;;;;;;;6.43;4.77;;;;;;;2.70;100.00;99488.45;4954238;58;1136843;-69
2023/02/03 12:54:33;;;;;;;7.43;4.50;;;;;;;2.99;100.00;99484.02;5041275;57;1134931;-69
2023/02/03 13:04:52;;;;;;;8.80;4.47;;;;;;;3.37;100.00;99481.55;5251586;55;47377;-66
2023/02/03 13:10:14;;;;;;;5.75;3.17;;;;;;;3.39;100.00;99482.30;5062795;57;1130925;-66
2023/02/03 13:15:27;;;;;;;3.27;2.23;;;;;;;3.48;100.00;99481.72;5087025;56;1134673;-68
2023/02/03 13:20:36;;;;;;;3.55;2.77;;;;;;;3.62;100.00;99479.52;5060847;56;1134747;-67
2023/02/03 13:26:18;;;;;;;3.90;2.97;;;;;;;3.77;100.00;99481.59;5094851;56;1134749;-68
2023/02/03 13:31:54;;;;;;;5.03;1.73;;;;;;;4.15;100.00;99482.46;5135149;55;1134938;-67
2023/02/03 13:37:09;;;;;;;7.20;2.80;;;;;;;4.17;100.00;99489.73;5202778;55;1134681;-69
2023/02/03 13:42:20;;;;;;;21.63;6.23;;;;;;;4.76;100.00;99479.54;5211968;55;1134732;-66
2023/02/03 13:47:29;;;;;;;18.73;5.80;;;;;;;4.99;100.00;99493.66;5212016;55;1136821;-70
2023/02/03 13:52:38;;;;;;;26.10;8.50;;;;;;;4.95;100.00;99500.88;5148297;55;1137236;-68
2023/02/03 13:57:45;;;;;;;27.93;7.45;;;;;;;5.07;100.00;99503.10;5232151;55;1136760;-66
2023/02/03 14:02:56;;;;;;;27.80;4.97;;;;;;;4.81;100.00;99511.50;5164306;55;1255693;-69
2023/02/03 14:08:21;;;;;;;21.07;5.97;;;;;;;4.64;100.00;99521.47;5124125;55;1136936;-70
2023/02/03 14:13:27;;;;;;;30.43;7.03;;;;;;;4.53;100.00;99526.98;5179557;55;1136969;-68
2023/02/03 14:18:38;;;;;;;22.30;6.70;;;;;;;4.46;100.00;99530.11;5204585;55;1136811;-67
2023/02/03 14:23:48;;;;;;;29.57;9.77;;;;;;;4.70;100.00;99531.53;5182910;55;1136867;-68
2023/02/03 14:28:54;;;;;;;30.60;7.17;;;;;;;4.98;100.00;99543.55;5184098;55;1136843;-66
2023/02/03 14:34:12;;;;;;;33.83;7.65;;;;;;;4.95;100.00;99544.11;5204452;55;1136882;-67
2023/02/03 14:39:24;;;;;;;38.93;12.27;;;;;;;4.88;100.00;99543.36;5183873;55;1137022;-65
2023/02/03 14:44:55;;;;;;;29.37;6.40;;;;;;;4.79;100.00;99552.67;5160268;55;1139061;-67
2023/02/03 14:50:05;;;;;;;38.20;7.57;;;;;;;4.71;100.00;99556.78;5098051;55;1137008;-67
2023/02/03 14:55:21;;;;;;;25.47;4.97;;;;;;;4.63;100.00;99558.60;5107003;55;1136849;-67
2023/02/03 15:00:36;;;;;;;46.00;12.37;;;;;;;4.59;100.00;99555.81;5096768;56;1136959;-67
2023/02/03 15:05:52;;;;;;;21.43;4.83;;;;;;;4.53;100.00;99566.25;5108878;55;1139077;-68
2023/02/03 15:10:58;;;;;;;38.83;8.50;;;;;;;4.49;100.00;99580.95;5141738;55;1136749;-68
2023/02/03 15:16:06;;;;;;;27.25;6.97;;;;;;;4.46;100.00;99586.39;5121081;56;1137115;-66
2023/02/03 15:21:21;;;;;;;46.40;8.87;;;;;;;4.38;100.00;99588.70;5089933;55;1136838;-66
2023/02/03 15:26:28;;;;;;;34.25;6.95;;;;;;;4.38;100.00;99601.32;5121764;55;1136841;-70
2023/02/03 15:31:44;;;;;;;25.63;8.27;;;;;;;4.37;100.00;99610.58;5156238;55;1137052;-67
2023/02/03 15:36:54;;;;;;;31.03;5.87;;;;;;;4.33;100.00;99598.63;5121316;55;1136714;-67
2023/02/03 15:42:01;;;;;;;36.63;8.30;;;;;;;4.33;100.00;99616.48;5059955;55;1136760;-69
2023/02/03 15:47:16;;;;;;;32.00;6.50;;;;;;;4.33;100.00;99619.10;5112337;56;1136918;-69
2023/02/03 15:52:25;;;;;;;23.03;4.57;;;;;;;4.31;100.00;99627.99;5112126;55;1136798;-69
2023/02/03 15:57:36;;;;;;;29.80;4.30;;;;;;;4.29;100.00;99628.09;5111015;55;1136988;-70
2023/02/03 16:02:44;;;;;;;23.33;3.37;;;;;;;4.24;100.00;99623.18;5126208;56;1136841;-71
2023/02/03 16:07:50;;;;;;;13.60;3.90;;;;;;;4.23;100.00;99623.28;5201975;55;1136840;-67
2023/02/03 16:13:26;;;;;;;18.53;4.50;;;;;;;4.20;100.00;99623.00;5203654;55;1136883;-70
2023/02/03 16:18:35;;;;;;;18.55;4.15;;;;;;;4.20;100.00;99630.85;5203794;55;1136742;-68
2023/02/03 16:23:47;;;;;;;22.70;4.77;;;;;;;4.19;100.00;99644.03;5161568;55;1136758;-69
2023/02/03 16:50:55;;;;;;;15.43;5.23;;;;;;;4.12;100.00;99670.25;5166898;55;972078;-71
2023/02/03 16:56:04;;;;;;;8.67;2.80;;;;;;;4.11;100.00;99675.95;5133564;55;1134752;-70
2023/02/03 17:01:11;;;;;;;16.90;3.00;;;;;;;4.07;100.00;99684.93;5144897;55;1134741;-70
2023/02/03 17:06:16;;;;;;;14.97;3.43;;;;;;;4.06;100.00;99687.64;5181056;55;1136905;-70
2023/02/03 17:11:23;;;;;;;19.00;4.53;;;;;;;4.06;100.00;99698.11;5139551;55;1136818;-66
2023/02/03 17:16:30;;;;;;;15.97;3.43;;;;;;;4.05;100.00;99695.95;5091515;55;1146526;-69
2023/02/03 17:21:35;;;;;;;17.83;4.53;;;;;;;4.05;100.00;99695.95;4995899;57;1136967;-70
2023/02/03 17:26:41;;;;;;;21.87;4.43;;;;;;;4.04;100.00;99695.59;5031623;57;1136859;-67
2023/02/03 17:31:47;;;;;;;14.00;4.07;;;;;;;4.05;100.00;99698.58;5017785;57;1136773;-68
2023/02/03 17:36:54;;;;;;;10.20;3.13;;;;;;;4.04;100.00;99708.67;4969835;57;1136798;-68
2023/02/03 17:42:00;;;;;;;16.07;2.90;;;;;;;4.05;100.00;99714.73;4955251;57;1146507;-67
2023/02/03 17:47:06;;;;;;;16.15;3.05;;;;;;;4.05;100.00;99723.43;4950634;57;1136875;-68
2023/02/03 17:52:12;;;;;;;12.50;3.20;;;;;;;4.05;100.00;99722.12;5046271;57;1136826;-70
2023/02/03 17:57:18;;;;;;;12.83;2.73;;;;;;;4.07;100.00;99725.95;5033420;57;1136781;-67
2023/02/03 18:02:23;;;;;;;17.73;2.20;;;;;;;4.06;100.00;99738.20;4912786;58;1136832;-70
2023/02/03 18:07:29;;;;;;;6.17;2.60;;;;;;;4.04;100.00;99726.98;4948178;58;1136834;-69
2023/02/03 18:12:35;;;;;;;14.40;4.60;;;;;;;4.03;100.00;99737.08;4970007;58;1134909;-70
2023/02/03 18:17:41;;;;;;;6.55;2.37;;;;;;;4.07;100.00;99749.50;4953865;57;1136962;-70
2023/02/03 18:22:46;;;;;;;9.58;2.47;;;;;;;4.08;100.00;99739.41;5037145;56;1134961;-71
2023/02/03 18:27:52;;;;;;;10.30;3.37;;;;;;;4.08;100.00;99741.55;4976054;57;1134656;-70
2023/02/03 18:33:00;;;;;;;13.03;4.17;;;;;;;4.06;100.00;99738.20;5037891;57;1136774;-70
2023/02/03 18:38:06;;;;;;;16.37;3.85;;;;;;;4.11;100.00;99747.07;5036992;57;1136761;-70
2023/02/03 18:43:12;;;;;;;11.43;2.53;;;;;;;4.11;100.00;99751.84;4987817;57;1136739;-69
2023/02/03 18:48:20;;;;;;;22.10;10.10;;;;;;;4.12;100.00;99751.37;5024455;57;1136936;-68
2023/02/03 18:53:28;;;;;;;26.10;10.67;;;;;;;4.12;100.00;99745.67;4938143;57;1138839;-66
2023/02/03 18:58:34;;;;;;;20.62;7.03;;;;;;;4.15;100.00;99747.22;4951929;56;1138880;-68
2023/02/03 19:03:40;;;;;;;20.97;3.93;;;;;;;4.18;100.00;99748.34;4951951;58;1136702;-71
2023/02/03 19:08:45;;;;;;;42.10;9.37;;;;;;;4.20;100.00;99756.94;4872268;59;1136843;-69
2023/02/03 19:13:53;;;;;;;19.20;4.90;;;;;;;4.21;100.00;99756.01;4952036;57;1136692;-68
2023/02/03 19:19:00;;;;;;;34.97;14.00;;;;;;;4.22;100.00;99775.55;4993710;56;1136831;-70
2023/02/03 19:24:07;;;;;;;14.16;6.00;;;;;;;4.17;100.00;99795.08;4969040;56;1139064;-71
2023/02/03 19:29:19;;;;;;;77.73;18.47;;;;;;;4.10;100.00;99799.03;4972068;57;1136877;-68
2023/02/03 19:34:25;;;;;;;86.83;20.93;;;;;;;4.09;100.00;99806.04;4936483;57;1138916;-68
2023/02/03 19:39:31;;;;;;;51.20;24.47;;;;;;;4.06;100.00;99815.38;4999961;57;1139178;-69
2023/02/03 19:44:37;;;;;;;24.53;6.30;;;;;;;4.05;100.00;99810.24;5016639;57;1138763;-71
2023/02/03 19:49:43;;;;;;;63.30;22.20;;;;;;;4.02;100.00;99812.57;5034848;56;1136844;-70
2023/02/03 19:54:50;;;;;;;35.27;9.47;;;;;;;4.01;100.00;99818.74;5176434;55;1139088;-69
2023/02/03 19:59:56;;;;;;;42.00;16.50;;;;;;;3.97;100.00;99832.97;5157030;55;1136965;-68
2023/02/03 20:05:02;;;;;;;14.95;5.40;;;;;;;3.92;100.00;99823.70;5080160;55;1138908;-69
2023/02/03 20:10:08;;;;;;;12.80;4.47;;;;;;;3.88;100.00;99833.05;5110096;56;1136867;-68
2023/02/03 20:15:14;;;;;;;5.97;3.10;;;;;;;3.86;100.00;99829.68;5090507;56;1136702;-70
2023/02/03 20:20:20;;;;;;;408.97;167.63;;;;;;;3.84;100.00;99825.47;5089895;56;1134752;-71
2023/02/03 20:25:27;;;;;;;290.73;103.23;;;;;;;3.81;100.00;99829.61;5099476;55;1143126;-69
2023/02/03 20:30:35;;;;;;;514.60;198.47;;;;;;;3.76;100.00;99842.11;5164938;55;1143023;-71
2023/02/03 20:35:41;;;;;;;125.07;29.27;;;;;;;3.74;100.00;99842.66;5130407;55;1143229;-69
2023/02/03 20:40:47;;;;;;;268.67;51.40;;;;;;;3.70;100.00;99847.23;5121459;55;1141206;-71
2023/02/03 20:45:53;;;;;;;73.63;16.60;;;;;;;3.67;100.00;99844.80;5141018;55;1140835;-70
2023/02/03 20:50:59;;;;;;;76.97;39.78;;;;;;;3.64;100.00;99831.09;5116621;56;1138986;-70
2023/02/03 20:56:15;;;;;;;15.03;7.65;;;;;;;3.61;100.00;99828.64;5166414;55;1138875;-71
2023/02/03 21:01:22;;;;;;;12.43;4.37;;;;;;;3.56;100.00;99835.45;5226048;55;1137012;-70
2023/02/03 21:06:30;;;;;;;5.17;2.27;;;;;;;3.54;100.00;99834.70;5209438;55;1136843;-69
2023/02/03 21:11:38;;;;;;;7.93;2.70;;;;;;;3.51;100.00;99844.86;5209646;55;1134653;-67
2023/02/03 21:16:43;;;;;;;7.77;2.60;;;;;;;3.50;100.00;99841.06;5222037;55;1134546;-67
2023/02/03 21:21:51;;;;;;;9.67;1.97;;;;;;;3.43;100.00;99835.34;5186329;55;1134828;-67
2023/02/03 21:26:59;;;;;;;7.23;2.30;;;;;;;3.44;100.00;99849.25;5187143;55;1134837;-69
2023/02/03 21:32:08;;;;;;;5.05;1.92;;;;;;;3.40;100.00;99847.74;5219837;55;1134897;-67
2023/02/03 21:37:40;;;;;;;6.10;2.23;;;;;;;3.33;100.00;99855.59;5210410;55;1134867;-66
2023/02/03 21:42:47;;;;;;;10.67;2.60;;;;;;;3.25;100.00;99863.85;5170516;55;1134774;-69
2023/02/03 21:47:53;;;;;;;10.78;4.30;;;;;;;3.21;100.00;99867.56;5126392;55;1136871;-67
2023/02/03 21:53:16;;;;;;;3.50;2.03;;;;;;;3.18;100.00;99883.45;5166662;55;1136691;-70
2023/02/03 21:58:31;;;;;;;4.20;1.63;;;;;;;3.13;100.00;99888.92;5210116;55;1134782;-68
2023/02/03 22:03:42;;;;;;;7.93;2.83;;;;;;;3.09;100.00;99895.70;5216375;55;1134657;-70
2023/02/03 22:08:51;;;;;;;4.10;2.20;;;;;;;3.08;100.00;99904.47;5219247;55;1134696;-70
2023/02/03 22:13:57;;;;;;;4.80;1.77;;;;;;;3.07;100.00;99926.30;5227955;55;1134800;-66
2023/02/03 22:19:03;;;;;;;10.43;4.47;;;;;;;3.06;100.00;99932.45;5162227;55;1134870;-70
2023/02/03 22:24:09;;;;;;;6.63;3.27;;;;;;;3.02;100.00;99937.48;5214031;55;1136938;-68
2023/02/03 22:29:15;;;;;;;10.40;4.85;;;;;;;2.99;100.00;99938.50;5143550;55;1134852;-69
2023/02/03 22:34:22;;;;;;;6.10;2.30;;;;;;;2.94;100.00;99940.97;5130788;55;1136876;-67
2023/02/03 22:39:27;;;;;;;4.30;1.80;;;;;;;2.88;100.00;99943.48;5147413;55;1134824;-71
2023/02/03 22:44:33;;;;;;;4.72;2.00;;;;;;;2.82;100.00;99963.39;5203713;55;1134893;-68
2023/02/03 22:49:39;;;;;;;6.03;2.57;;;;;;;2.73;100.00;99983.48;5109334;56;1135216;-70
2023/02/03 22:54:45;;;;;;;10.40;4.97;;;;;;;2.65;100.00;100020.89;5141836;55;1134725;-67
2023/02/03 22:59:51;;;;;;;15.20;8.80;;;;;;;2.54;100.00;100078.05;5099772;55;1138910;-71
2023/02/03 23:04:57;;;;;;;69.47;18.63;;;;;;;2.10;100.00;100130.72;5135692;55;1139087;-69
2023/02/03 23:10:06;;;;;;;61.97;18.13;;;;;;;1.68;100.00;100156.60;5031975;56;1140836;-70
2023/02/03 23:15:13;;;;;;;28.35;14.00;;;;;;;1.46;100.00;100190.26;5144501;55;1140901;-71
2023/02/03 23:20:20;;;;;;;23.13;10.73;;;;;;;1.28;100.00;100216.67;5100043;56;1141126;-69
2023/02/03 23:25:25;;;;;;;21.43;11.53;;;;;;;1.15;100.00;100249.38;5068947;56;1141190;-71
2023/02/03 23:30:32;;;;;;;19.75;11.08;;;;;;;1.11;100.00;100288.19;5181095;55;1141374;-71
2023/02/03 23:35:45;;;;;;;10.87;6.53;;;;;;;1.00;100.00;100322.05;5109426;56;1141039;-67
2023/02/03 23:40:53;;;;;;;11.00;6.47;;;;;;;0.92;100.00;100350.59;5121893;56;1138976;-67
2023/02/03 23:45:58;;;;;;;8.98;5.53;;;;;;;0.78;100.00;100387.59;5121827;56;1138928;-71